Time;durP1;ratioP1;P1;durP2;ratioP2;P2;SDS_P1;SDS_P2;PMS_P1;PMS_P2;Temp;Humidity;BMP_temperature;BMP_pressure;BME280_temperature;BME280_humidity;BME280_pressure;Samples;Min_cycle;Max_cycle;Signal;HPM_P1;HPM_P2
2020/12/15 00:01:33;;;;;;;11.20;8.10;;;8.90;63.60;;;;;;5009468;28;20302;-40
2020/12/15 00:03:59;;;;;;;12.60;8.80;;;8.90;64.10;;;;;;5008857;28;20561;-40
2020/12/15 00:06:33;;;;;;;12.47;8.50;;;8.90;64.40;;;;;;5009473;28;20190;-40
2020/12/15 00:08:59;;;;;;;13.10;8.93;;;9.20;63.50;;;;;;5009828;28;20551;-40
2020/12/15 00:11:24;;;;;;;8.67;7.13;;;9.00;63.50;;;;;;5007270;28;20515;-40
2020/12/15 00:13:50;;;;;;;7.53;6.23;;;9.30;63.30;;;;;;5013766;28;20189;-40
2020/12/15 00:16:17;;;;;;;10.03;7.20;;;9.40;62.30;;;;;;5013465;28;20713;-40
2020/12/15 00:18:43;;;;;;;9.57;7.40;;;9.60;61.70;;;;;;5013129;28;20194;-40
2020/12/15 00:21:08;;;;;;;8.80;7.10;;;9.70;61.20;;;;;;5013461;28;20954;-40
2020/12/15 00:23:34;;;;;;;8.77;6.70;;;9.90;60.60;;;;;;5014243;28;20198;-40
2020/12/15 00:26:00;;;;;;;10.60;7.27;;;10.00;59.20;;;;;;5013252;28;20205;-40
2020/12/15 00:28:25;;;;;;;8.60;6.83;;;10.00;59.00;;;;;;5013457;28;20201;-40
2020/12/15 00:30:51;;;;;;;9.00;7.40;;;10.10;58.90;;;;;;5012896;28;20241;-40
2020/12/15 00:33:17;;;;;;;8.70;7.00;;;10.10;59.00;;;;;;5013319;28;20194;-40
2020/12/15 00:35:43;;;;;;;8.47;6.70;;;10.10;59.00;;;;;;5013219;28;20932;-40
2020/12/15 00:38:08;;;;;;;9.17;6.80;;;10.10;58.90;;;;;;5010926;28;20701;-40
2020/12/15 00:40:34;;;;;;;8.20;6.40;;;10.10;58.70;;;;;;5012200;28;20201;-40
2020/12/15 00:42:59;;;;;;;8.60;5.83;;;10.00;59.00;;;;;;5012387;28;20194;-40
2020/12/15 00:45:25;;;;;;;8.63;6.13;;;10.00;58.90;;;;;;5013357;28;20202;-40
2020/12/15 00:47:51;;;;;;;7.27;6.37;;;10.20;58.70;;;;;;5011737;28;20324;-40
2020/12/15 00:50:17;;;;;;;7.13;6.10;;;10.10;58.60;;;;;;5013303;28;20237;-41
2020/12/15 00:52:42;;;;;;;6.33;5.70;;;10.10;58.40;;;;;;5011879;28;20429;-40
2020/12/15 00:55:08;;;;;;;7.20;5.90;;;10.10;58.30;;;;;;5013272;28;20292;-40
2020/12/15 00:57:34;;;;;;;5.87;5.13;;;10.00;58.40;;;;;;5011932;28;20213;-40
2020/12/15 00:59:59;;;;;;;6.90;5.57;;;10.00;58.30;;;;;;5013106;28;20204;-40
2020/12/15 01:02:25;;;;;;;6.87;6.00;;;10.20;58.10;;;;;;5012346;28;20206;-40
2020/12/15 01:04:51;;;;;;;7.40;6.50;;;10.20;58.10;;;;;;5012309;28;20197;-40
2020/12/15 01:07:16;;;;;;;7.50;6.50;;;10.40;57.80;;;;;;5010477;28;20645;-40
2020/12/15 01:09:42;;;;;;;6.40;5.60;;;10.40;57.40;;;;;;5012792;28;20194;-40
2020/12/15 01:12:10;;;;;;;7.27;5.13;;;10.30;57.60;;;;;;5019586;28;20252;-40
2020/12/15 01:14:35;;;;;;;5.60;4.90;;;10.20;57.60;;;;;;5013300;28;20194;-40
2020/12/15 01:17:01;;;;;;;5.23;4.70;;;10.20;57.60;;;;;;5012323;28;20437;-40
2020/12/15 01:19:26;;;;;;;6.43;5.43;;;10.30;57.40;;;;;;5012533;28;20665;-40
2020/12/15 01:21:52;;;;;;;5.43;4.93;;;10.30;57.10;;;;;;5012422;28;20214;-40
2020/12/15 01:24:17;;;;;;;4.83;4.30;;;10.30;57.20;;;;;;5011607;28;20226;-40
2020/12/15 01:26:46;;;;;;;8.43;6.27;;;10.30;57.40;;;;;;5012528;28;20979;-40
2020/12/15 01:29:12;;;;;;;5.53;4.93;;;10.30;57.50;;;;;;5011778;28;20201;-40
2020/12/15 01:31:37;;;;;;;7.60;5.60;;;10.30;57.50;;;;;;5011843;28;20996;-40
2020/12/15 01:34:03;;;;;;;6.33;4.83;;;10.20;57.70;;;;;;5011646;28;20190;-40
2020/12/15 01:36:30;;;;;;;6.33;4.57;;;10.20;57.80;;;;;;5010371;28;20202;-40
2020/12/15 01:38:55;;;;;;;6.93;5.17;;;10.20;57.60;;;;;;5011700;28;20202;-40
2020/12/15 01:41:21;;;;;;;6.67;5.50;;;10.20;57.70;;;;;;5011537;28;20433;-40
2020/12/15 01:43:57;;;;;;;6.07;5.43;;;10.40;57.60;;;;;;5018503;28;20263;-40
2020/12/15 01:46:24;;;;;;;7.90;6.40;;;10.10;57.80;;;;;;5012092;28;20193;-40
2020/12/15 01:48:52;;;;;;;7.70;6.10;;;9.90;59.60;;;;;;5017511;28;20908;-40
2020/12/15 01:51:17;;;;;;;8.50;6.67;;;9.90;59.90;;;;;;5012035;28;20630;-40
2020/12/15 01:53:45;;;;;;;6.83;6.00;;;10.10;58.50;;;;;;5012167;28;20520;-40
2020/12/15 01:56:11;;;;;;;6.30;5.70;;;10.20;58.30;;;;;;5011058;28;20285;-40
2020/12/15 01:58:39;;;;;;;6.90;5.43;;;10.30;57.90;;;;;;5011191;28;20936;-40
2020/12/15 02:01:05;;;;;;;6.13;5.53;;;10.20;57.90;;;;;;5011469;28;20523;-40
2020/12/15 02:03:31;;;;;;;9.10;6.03;;;10.40;57.70;;;;;;5009096;28;20525;-40
2020/12/15 02:05:57;;;;;;;10.87;5.80;;;10.60;57.30;;;;;;5011165;28;20907;-40
2020/12/15 02:08:22;;;;;;;7.30;5.67;;;10.80;57.30;;;;;;5010019;28;20720;-40
2020/12/15 02:10:48;;;;;;;7.60;5.40;;;10.90;57.00;;;;;;5005291;28;20312;-40
2020/12/15 02:13:14;;;;;;;6.30;5.23;;;11.00;56.40;;;;;;5010523;28;20194;-40
2020/12/15 02:15:40;;;;;;;6.47;5.60;;;10.80;56.50;;;;;;5010783;28;20926;-40
2020/12/15 02:18:06;;;;;;;7.17;5.90;;;10.60;56.90;;;;;;5010736;28;20610;-40
2020/12/15 02:20:32;;;;;;;6.13;5.07;;;10.50;57.40;;;;;;5011721;28;20468;-40
2020/12/15 02:22:58;;;;;;;6.80;5.60;;;10.50;57.40;;;;;;5011112;28;21042;-41
2020/12/15 02:25:23;;;;;;;7.97;5.50;;;10.60;57.20;;;;;;5010570;28;20429;-40
2020/12/15 02:27:49;;;;;;;6.80;4.90;;;10.60;56.90;;;;;;5010857;28;20213;-40
2020/12/15 02:30:15;;;;;;;5.73;5.23;;;10.50;57.10;;;;;;5010869;28;20581;-40
2020/12/15 02:32:41;;;;;;;7.20;5.03;;;10.60;57.10;;;;;;5010047;28;20228;-40
2020/12/15 02:35:07;;;;;;;6.17;5.10;;;10.60;56.90;;;;;;5010806;28;20198;-40
2020/12/15 02:37:32;;;;;;;6.33;5.53;;;10.80;56.90;;;;;;5010489;28;20468;-40
2020/12/15 02:39:59;;;;;;;11.23;5.30;;;10.90;56.60;;;;;;5010913;28;20441;-40
2020/12/15 02:42:28;;;;;;;7.93;5.80;;;11.10;56.30;;;;;;5010721;28;20608;-40
2020/12/15 02:44:54;;;;;;;5.20;4.60;;;11.10;56.60;;;;;;5010463;28;20464;-41
2020/12/15 02:47:19;;;;;;;6.33;5.20;;;11.20;55.80;;;;;;5010212;28;20861;-40
2020/12/15 02:49:45;;;;;;;5.20;4.70;;;11.30;55.60;;;;;;5010376;28;20242;-40
2020/12/15 02:52:11;;;;;;;7.77;5.90;;;11.20;55.70;;;;;;5010568;28;20206;-40
2020/12/15 02:54:36;;;;;;;7.03;5.80;;;11.20;55.70;;;;;;5010933;28;20231;-40
2020/12/15 02:57:02;;;;;;;6.37;5.70;;;11.30;55.90;;;;;;5010667;28;20237;-40
2020/12/15 02:59:27;;;;;;;8.33;5.67;;;11.20;55.80;;;;;;5008807;28;20236;-40
2020/12/15 03:01:53;;;;;;;8.17;6.93;;;10.90;56.30;;;;;;5010735;28;20198;-40
2020/12/15 03:04:19;;;;;;;7.70;6.00;;;10.80;57.00;;;;;;5011392;28;20222;-40
2020/12/15 03:06:44;;;;;;;6.37;5.37;;;10.80;57.00;;;;;;5010410;28;20236;-40
2020/12/15 03:09:10;;;;;;;6.30;5.70;;;10.80;56.80;;;;;;5009815;28;20226;-40
2020/12/15 03:11:36;;;;;;;6.77;5.70;;;10.90;56.70;;;;;;5009940;28;20217;-40
2020/12/15 03:14:03;;;;;;;5.50;4.80;;;10.90;56.80;;;;;;5011168;28;20201;-41
2020/12/15 03:16:29;;;;;;;8.20;4.53;;;10.80;56.50;;;;;;5008668;28;21127;-40
2020/12/15 03:18:54;;;;;;;5.97;4.33;;;10.80;56.50;;;;;;5009855;28;20516;-40
2020/12/15 03:21:21;;;;;;;5.70;4.77;;;10.70;56.40;;;;;;5011181;28;20272;-41
2020/12/15 03:23:47;;;;;;;6.40;5.23;;;10.50;57.40;;;;;;5010586;28;20576;-40
2020/12/15 03:26:13;;;;;;;7.53;5.17;;;10.20;58.30;;;;;;5008688;28;20456;-40
2020/12/15 03:28:38;;;;;;;8.10;5.63;;;9.80;60.20;;;;;;5010065;28;20469;-40
2020/12/15 03:31:04;;;;;;;4.63;4.23;;;9.40;61.90;;;;;;5010398;28;20740;-40
2020/12/15 03:33:30;;;;;;;5.03;4.50;;;9.50;62.00;;;;;;5010670;28;20352;-40
2020/12/15 03:35:55;;;;;;;6.90;4.77;;;9.70;61.10;;;;;;5009838;28;20598;-40
2020/12/15 03:38:21;;;;;;;5.50;4.77;;;10.00;59.20;;;;;;5010459;28;20788;-40
2020/12/15 03:40:46;;;;;;;6.57;4.90;;;9.80;59.60;;;;;;5010375;28;20201;-40
2020/12/15 03:43:12;;;;;;;6.60;5.20;;;9.70;60.00;;;;;;5009989;28;20194;-40
2020/12/15 03:45:42;;;;;;;5.20;4.70;;;9.70;59.80;;;;;;5010591;28;20612;-40
2020/12/15 03:48:12;;;;;;;5.03;4.53;;;9.60;59.80;;;;;;5008210;28;20234;-40
2020/12/15 03:50:37;;;;;;;5.43;4.93;;;9.60;59.60;;;;;;5010377;28;21066;-40
2020/12/15 03:53:03;;;;;;;4.80;4.27;;;9.70;59.70;;;;;;5009105;28;20429;-41
2020/12/15 03:55:29;;;;;;;5.70;4.47;;;9.70;59.70;;;;;;5008699;28;20205;-40
2020/12/15 03:57:54;;;;;;;4.70;3.97;;;9.80;59.80;;;;;;5008774;28;20432;-40
2020/12/15 04:00:20;;;;;;;5.07;4.57;;;9.90;59.10;;;;;;5010640;28;20650;-40
2020/12/15 04:02:47;;;;;;;5.23;4.20;;;10.10;57.60;;;;;;5009611;28;20204;-40
2020/12/15 04:05:13;;;;;;;6.10;4.67;;;10.40;57.40;;;;;;5010532;28;20435;-40
2020/12/15 04:07:43;;;;;;;4.53;4.03;;;10.50;57.30;;;;;;5009345;28;20521;-40
2020/12/15 04:10:09;;;;;;;4.40;4.00;;;10.60;57.20;;;;;;5009787;28;20906;-40
2020/12/15 04:12:35;;;;;;;5.93;4.63;;;10.70;57.10;;;;;;5009227;28;20440;-40
2020/12/15 04:15:00;;;;;;;5.73;4.70;;;10.80;57.10;;;;;;5010273;28;20441;-40
2020/12/15 04:17:26;;;;;;;4.80;4.30;;;10.80;56.80;;;;;;5009467;28;20198;-40
2020/12/15 04:19:51;;;;;;;5.70;4.40;;;10.90;56.80;;;;;;5009681;28;20193;-40
2020/12/15 04:22:17;;;;;;;6.37;4.53;;;11.00;56.80;;;;;;5008254;28;20281;-40
2020/12/15 04:24:43;;;;;;;7.17;4.70;;;11.10;56.80;;;;;;5009464;28;20194;-40
2020/12/15 04:27:08;;;;;;;5.40;4.80;;;11.20;56.60;;;;;;5010038;28;20190;-40
2020/12/15 04:29:34;;;;;;;6.97;5.23;;;11.30;56.50;;;;;;5009117;28;20210;-40
2020/12/15 04:31:59;;;;;;;5.20;4.70;;;11.40;56.30;;;;;;5008736;28;20225;-40
2020/12/15 04:34:25;;;;;;;6.80;4.90;;;11.40;56.20;;;;;;5010031;28;20194;-40
2020/12/15 04:36:51;;;;;;;4.83;4.33;;;11.40;56.30;;;;;;5009814;28;20190;-40
2020/12/15 04:39:17;;;;;;;6.40;4.97;;;11.40;56.30;;;;;;5008884;28;20197;-40
2020/12/15 04:41:43;;;;;;;5.47;4.40;;;11.40;56.20;;;;;;5009480;28;20197;-40
2020/12/15 04:44:09;;;;;;;7.17;5.20;;;11.50;56.10;;;;;;5010341;28;20672;-40
2020/12/15 04:46:43;;;;;;;5.00;4.50;;;11.50;56.10;;;;;;5009554;28;20440;-40
2020/12/15 04:49:13;;;;;;;4.90;4.50;;;11.50;56.00;;;;;;5008807;28;20480;-40
2020/12/15 04:51:47;;;;;;;5.00;4.50;;;11.50;56.00;;;;;;5002576;28;20591;-40
2020/12/15 04:54:16;;;;;;;5.20;4.33;;;11.50;55.90;;;;;;5009819;28;20840;-40
2020/12/15 04:56:43;;;;;;;5.10;4.27;;;11.40;55.80;;;;;;5008885;28;20472;-40
2020/12/15 04:59:12;;;;;;;5.13;4.47;;;11.40;56.00;;;;;;5010956;28;20440;-40
2020/12/15 05:01:39;;;;;;;7.80;4.97;;;11.30;56.00;;;;;;5010644;28;20486;-40
2020/12/15 05:04:07;;;;;;;4.70;4.20;;;11.10;56.20;;;;;;5012646;28;20425;-40
2020/12/15 05:06:37;;;;;;;7.50;4.20;;;11.20;56.40;;;;;;5012777;28;20983;-40
2020/12/15 05:09:03;;;;;;;5.53;5.00;;;11.30;56.20;;;;;;5012842;28;20441;-40
2020/12/15 05:11:29;;;;;;;6.33;5.73;;;11.40;56.10;;;;;;5012802;28;20853;-40
2020/12/15 05:13:55;;;;;;;6.20;5.20;;;11.40;56.20;;;;;;5012912;28;20440;-40
2020/12/15 05:16:20;;;;;;;6.50;5.50;;;11.50;56.20;;;;;;5012909;28;20197;-40
2020/12/15 05:18:46;;;;;;;5.77;5.17;;;11.50;56.10;;;;;;5010616;28;20198;-40
2020/12/15 05:21:13;;;;;;;6.70;5.63;;;11.50;55.90;;;;;;5012272;28;20963;-40
2020/12/15 05:23:54;;;;;;;5.50;5.00;;;11.60;55.80;;;;;;5012735;28;20205;-40
2020/12/15 05:26:26;;;;;;;5.10;4.33;;;11.60;55.60;;;;;;5011864;28;20440;-40
2020/12/15 05:29:06;;;;;;;6.10;5.50;;;11.60;55.50;;;;;;5012027;28;20444;-40
2020/12/15 05:31:32;;;;;;;5.30;4.80;;;11.60;55.70;;;;;;5016504;28;20491;-40
2020/12/15 05:33:59;;;;;;;5.20;4.70;;;11.60;55.80;;;;;;5013390;28;20475;-40
2020/12/15 05:36:25;;;;;;;6.30;4.63;;;11.50;56.00;;;;;;5012575;28;21285;-40
2020/12/15 05:39:07;;;;;;;6.10;5.00;;;11.60;55.90;;;;;;5011994;28;20437;-40
2020/12/15 05:41:35;;;;;;;7.10;5.40;;;11.60;56.00;;;;;;5010934;28;20488;-40
2020/12/15 05:44:02;;;;;;;5.40;4.50;;;11.60;55.90;;;;;;5012705;28;20432;-40
2020/12/15 05:46:29;;;;;;;7.03;5.43;;;11.60;56.00;;;;;;5009985;28;20925;-40
2020/12/15 05:49:04;;;;;;;6.87;6.20;;;11.60;55.90;;;;;;5011741;28;20951;-40
2020/12/15 05:51:42;;;;;;;5.43;4.93;;;11.50;55.70;;;;;;5011203;28;20575;-40
2020/12/15 05:54:13;;;;;;;5.13;4.63;;;11.40;55.80;;;;;;5010477;28;21091;-40
2020/12/15 05:56:40;;;;;;;4.80;4.30;;;11.40;55.80;;;;;;5011315;28;20440;-40
2020/12/15 05:59:20;;;;;;;6.17;4.33;;;11.30;56.00;;;;;;5011471;28;20468;-40
2020/12/15 06:01:54;;;;;;;5.10;4.60;;;11.10;56.30;;;;;;5011350;28;20951;-40
2020/12/15 06:04:22;;;;;;;5.00;4.50;;;10.80;56.70;;;;;;5012395;28;20444;-40
2020/12/15 06:06:48;;;;;;;4.53;4.00;;;10.50;56.90;;;;;;5011102;28;20486;-40
2020/12/15 06:09:15;;;;;;;5.93;5.10;;;10.30;57.90;;;;;;5011247;28;20519;-40
2020/12/15 06:11:43;;;;;;;4.23;3.83;;;10.10;57.60;;;;;;5010692;28;20967;-40
2020/12/15 06:14:10;;;;;;;5.90;4.40;;;10.10;58.40;;;;;;5011002;28;20472;-40
2020/12/15 06:16:36;;;;;;;7.23;4.60;;;10.10;58.70;;;;;;5011252;28;20468;-40
2020/12/15 06:19:08;;;;;;;5.77;4.47;;;10.30;58.10;;;;;;5012182;28;20472;-40
2020/12/15 06:21:37;;;;;;;5.20;4.57;;;10.00;58.60;;;;;;5009673;28;20437;-41
2020/12/15 06:24:07;;;;;;;4.97;4.20;;;9.80;60.00;;;;;;5011220;28;21058;-40
2020/12/15 06:26:34;;;;;;;4.73;3.90;;;9.90;61.40;;;;;;5009869;28;21004;-40
2020/12/15 06:29:06;;;;;;;4.50;4.10;;;10.10;61.20;;;;;;5011619;28;20433;-41
2020/12/15 06:31:34;;;;;;;5.90;3.73;;;10.30;60.80;;;;;;5011123;28;20493;-41
2020/12/15 06:34:02;;;;;;;4.43;3.97;;;10.60;59.80;;;;;;5011230;28;20437;-40
2020/12/15 06:36:33;;;;;;;4.50;4.10;;;10.90;58.70;;;;;;5018809;28;20804;-40
2020/12/15 06:39:00;;;;;;;6.00;4.20;;;11.00;58.10;;;;;;5012103;28;20514;-40
2020/12/15 06:41:27;;;;;;;4.93;4.30;;;11.00;57.50;;;;;;5008482;28;20437;-40
2020/12/15 06:44:07;;;;;;;9.80;8.00;;;11.40;57.50;;;;;;5009572;28;20437;-41
2020/12/15 06:46:32;;;;;;;6.87;5.33;;;11.60;56.70;;;;;;4999825;28;20432;-41
2020/12/15 06:48:59;;;;;;;4.50;4.10;;;11.60;55.80;;;;;;5009655;28;20475;-40
2020/12/15 06:51:33;;;;;;;6.40;3.80;;;11.50;56.50;;;;;;5010747;28;20821;-41
2020/12/15 06:54:06;;;;;;;6.80;5.47;;;11.60;56.00;;;;;;5010262;28;20463;-41
2020/12/15 06:56:32;;;;;;;14.00;9.93;;;11.80;56.20;;;;;;5011020;28;20445;-41
2020/12/15 06:59:05;;;;;;;14.17;9.80;;;11.90;55.50;;;;;;5011376;28;20433;-40
2020/12/15 07:01:33;;;;;;;7.07;5.17;;;12.00;55.20;;;;;;5010667;28;20891;-41
2020/12/15 07:03:59;;;;;;;7.93;4.40;;;12.00;54.90;;;;;;5010611;28;20916;-40
2020/12/15 07:06:26;;;;;;;7.17;4.60;;;11.80;55.10;;;;;;5010717;28;20433;-40
2020/12/15 07:08:58;;;;;;;5.70;4.83;;;11.60;55.70;;;;;;5008319;28;20439;-40
2020/12/15 07:11:25;;;;;;;5.70;5.07;;;11.60;55.90;;;;;;5009631;28;21087;-41
2020/12/15 07:14:02;;;;;;;7.53;4.43;;;11.70;55.90;;;;;;5010147;28;20924;-40
2020/12/15 07:16:29;;;;;;;4.50;4.10;;;11.80;55.30;;;;;;5010197;28;20448;-41
2020/12/15 07:18:55;;;;;;;5.07;4.33;;;12.00;55.10;;;;;;5008834;28;20445;-40
2020/12/15 07:21:23;;;;;;;4.20;3.80;;;12.00;54.60;;;;;;5010378;28;20437;-41
2020/12/15 07:23:49;;;;;;;5.07;4.47;;;12.00;54.60;;;;;;5008348;28;20536;-41
2020/12/15 07:26:17;;;;;;;5.37;4.70;;;12.00;54.40;;;;;;5010245;28;20437;-40
2020/12/15 07:28:47;;;;;;;4.87;4.37;;;11.90;54.60;;;;;;5008173;28;20491;-41
2020/12/15 07:31:24;;;;;;;5.20;4.30;;;11.80;54.90;;;;;;5007731;28;20568;-41
2020/12/15 07:33:49;;;;;;;5.17;4.30;;;11.50;55.10;;;;;;5010012;28;20995;-40
2020/12/15 07:36:16;;;;;;;7.83;5.10;;;11.60;55.90;;;;;;4998842;28;20499;-40
2020/12/15 07:38:44;;;;;;;7.67;4.63;;;11.40;55.60;;;;;;5003971;28;20258;-40
2020/12/15 07:41:15;;;;;;;5.00;4.43;;;11.20;56.10;;;;;;5008483;28;20560;-41
2020/12/15 07:43:54;;;;;;;6.10;4.07;;;11.20;56.60;;;;;;5009514;28;20481;-40
2020/12/15 07:46:23;;;;;;;6.77;5.17;;;11.50;56.30;;;;;;5008843;28;20436;-41
2020/12/15 07:48:52;;;;;;;5.70;5.10;;;11.80;55.80;;;;;;5009861;28;20483;-40
2020/12/15 07:51:17;;;;;;;5.50;4.23;;;12.10;55.00;;;;;;5007636;28;20484;-41
2020/12/15 07:53:53;;;;;;;8.17;4.90;;;12.30;54.50;;;;;;5006251;28;20520;-41
2020/12/15 07:56:19;;;;;;;13.63;4.50;;;12.40;54.10;;;;;;5009667;28;20189;-41
2020/12/15 07:58:49;;;;;;;5.67;4.17;;;12.30;54.00;;;;;;5009750;28;20453;-40
2020/12/15 08:01:20;;;;;;;6.43;4.53;;;12.30;54.10;;;;;;5007253;28;20676;-40
2020/12/15 08:03:45;;;;;;;7.37;5.70;;;12.40;54.10;;;;;;5006071;28;20433;-40
2020/12/15 08:06:12;;;;;;;5.17;4.63;;;12.40;53.80;;;;;;5004367;28;20437;-40
2020/12/15 08:08:40;;;;;;;5.60;4.87;;;12.50;53.70;;;;;;5007181;28;20217;-40
2020/12/15 08:11:14;;;;;;;5.83;4.60;;;12.50;53.80;;;;;;5009376;28;20527;-40
2020/12/15 08:13:40;;;;;;;6.43;4.90;;;12.50;53.50;;;;;;5010099;28;20465;-41
2020/12/15 08:16:06;;;;;;;7.33;5.43;;;12.50;53.30;;;;;;5009144;28;20842;-40
2020/12/15 08:18:32;;;;;;;8.40;6.07;;;12.30;53.60;;;;;;5009740;28;20495;-40
2020/12/15 08:21:02;;;;;;;17.03;9.67;;;12.20;54.00;;;;;;5009410;28;20222;-40
2020/12/15 08:23:27;;;;;;;16.20;8.83;;;12.50;53.70;;;;;;5009232;28;20226;-41
2020/12/15 08:25:57;;;;;;;7.40;5.70;;;12.40;54.20;;;;;;5009235;28;20468;-39
2020/12/15 08:28:22;;;;;;;12.80;7.63;;;12.60;55.10;;;;;;5010005;28;20598;-40
2020/12/15 08:30:53;;;;;;;7.13;6.03;;;12.80;56.90;;;;;;5009580;28;20481;-40
2020/12/15 08:33:30;;;;;;;10.90;6.40;;;13.00;53.90;;;;;;4997136;28;20198;-40
2020/12/15 08:35:57;;;;;;;8.20;6.90;;;13.10;53.50;;;;;;5012879;28;20963;-41
2020/12/15 08:38:25;;;;;;;7.67;5.57;;;13.30;53.20;;;;;;5012633;28;20436;-40
2020/12/15 08:40:57;;;;;;;9.53;6.60;;;13.20;52.60;;;;;;5012783;28;20432;-41
2020/12/15 08:43:23;;;;;;;7.67;6.10;;;12.90;53.00;;;;;;5013516;28;21019;-41
2020/12/15 08:45:49;;;;;;;6.20;4.90;;;12.70;53.10;;;;;;5013650;28;20524;-41
2020/12/15 08:48:17;;;;;;;7.13;5.83;;;12.50;53.40;;;;;;5012289;28;20241;-40
2020/12/15 08:50:43;;;;;;;5.97;5.37;;;12.40;54.20;;;;;;5012914;28;20484;-40
2020/12/15 08:53:11;;;;;;;6.83;6.23;;;12.60;54.30;;;;;;5012459;28;20780;-40
2020/12/15 08:55:40;;;;;;;6.60;5.47;;;12.70;53.60;;;;;;5013741;28;20975;-41
2020/12/15 08:58:08;;;;;;;8.23;5.37;;;12.60;53.90;;;;;;5012117;28;20940;-41
2020/12/15 09:00:36;;;;;;;8.03;5.50;;;12.70;53.90;;;;;;5011128;28;20514;-40
2020/12/15 09:03:16;;;;;;;8.10;5.83;;;12.80;53.70;;;;;;5012438;28;20437;-40
2020/12/15 09:05:51;;;;;;;7.10;5.70;;;12.50;53.90;;;;;;5013078;28;20795;-40
2020/12/15 09:08:18;;;;;;;9.10;5.57;;;12.60;53.80;;;;;;5012193;28;20519;-40
2020/12/15 09:10:43;;;;;;;5.43;4.93;;;12.50;53.40;;;;;;5012879;28;20822;-41
2020/12/15 09:13:09;;;;;;;5.50;5.00;;;12.20;54.10;;;;;;5012909;28;20443;-40
2020/12/15 09:15:52;;;;;;;6.30;5.70;;;11.90;54.70;;;;;;5011637;28;20289;-41
2020/12/15 09:18:31;;;;;;;5.40;4.90;;;12.00;55.00;;;;;;5010125;28;20190;-41
2020/12/15 09:21:09;;;;;;;6.50;4.90;;;12.10;54.90;;;;;;5008885;28;20527;-40
2020/12/15 09:23:34;;;;;;;5.93;4.93;;;12.30;54.50;;;;;;5011604;28;20447;-41
2020/12/15 09:26:00;;;;;;;6.30;5.70;;;12.30;54.00;;;;;;5011776;28;20524;-41
2020/12/15 09:28:27;;;;;;;7.20;5.17;;;12.30;53.90;;;;;;5008951;28;20198;-41
2020/12/15 09:30:53;;;;;;;6.47;5.40;;;12.20;54.20;;;;;;5012195;28;20694;-40
2020/12/15 09:33:18;;;;;;;6.90;5.80;;;12.40;54.20;;;;;;5012667;28;20456;-41
2020/12/15 09:35:44;;;;;;;7.50;5.60;;;12.50;54.00;;;;;;5012453;28;20312;-40
2020/12/15 09:38:10;;;;;;;5.47;4.93;;;12.50;53.70;;;;;;5011523;28;20591;-40
2020/12/15 09:40:36;;;;;;;5.97;4.77;;;12.30;53.90;;;;;;5012305;28;20457;-41
2020/12/15 09:43:02;;;;;;;7.10;5.57;;;12.30;54.20;;;;;;5012294;28;20297;-40
2020/12/15 09:45:27;;;;;;;6.27;5.00;;;12.20;54.60;;;;;;5012865;28;20194;-40
2020/12/15 09:47:53;;;;;;;6.80;5.07;;;12.20;54.20;;;;;;5005668;28;20658;-40
2020/12/15 09:50:19;;;;;;;5.57;5.07;;;12.20;54.30;;;;;;5012174;28;20325;-40
2020/12/15 09:52:44;;;;;;;5.60;5.00;;;12.40;54.10;;;;;;5011610;28;20202;-40
2020/12/15 09:55:10;;;;;;;5.23;4.73;;;12.50;53.80;;;;;;5012107;28;20212;-40
2020/12/15 09:57:35;;;;;;;5.30;4.47;;;12.50;53.70;;;;;;5009833;28;20273;-41
2020/12/15 10:00:01;;;;;;;8.00;4.90;;;12.40;53.80;;;;;;5012526;28;20244;-40
2020/12/15 10:02:26;;;;;;;6.33;5.00;;;12.20;54.00;;;;;;5018185;28;20272;-40
2020/12/15 10:04:52;;;;;;;5.57;4.90;;;12.10;54.50;;;;;;5015227;28;20636;-41
2020/12/15 10:07:20;;;;;;;8.10;5.23;;;12.30;54.50;;;;;;5009354;28;20206;-41
2020/12/15 10:09:45;;;;;;;6.80;5.40;;;12.10;54.90;;;;;;5004759;28;20194;-40
2020/12/15 10:12:11;;;;;;;5.67;5.17;;;12.30;54.90;;;;;;5007139;28;20566;-40
2020/12/15 10:14:36;;;;;;;5.77;5.20;;;12.40;54.70;;;;;;5010628;28;20768;-40
2020/12/15 10:17:02;;;;;;;7.33;5.23;;;12.40;54.80;;;;;;5009914;28;20555;-40
2020/12/15 10:19:28;;;;;;;6.17;5.00;;;12.30;55.10;;;;;;5010710;28;20320;-40
2020/12/15 10:21:56;;;;;;;6.20;5.20;;;12.10;55.10;;;;;;5010660;28;20297;-40
2020/12/15 10:24:22;;;;;;;5.70;5.20;;;11.80;55.80;;;;;;5009403;28;20554;-40
2020/12/15 10:26:48;;;;;;;6.53;5.57;;;11.80;56.30;;;;;;5010806;28;20429;-40
2020/12/15 10:29:13;;;;;;;6.10;5.50;;;11.90;56.50;;;;;;5010471;28;20213;-40
2020/12/15 10:31:39;;;;;;;7.30;5.33;;;11.70;56.60;;;;;;5010695;28;20237;-40
2020/12/15 10:34:05;;;;;;;6.57;5.53;;;11.40;57.10;;;;;;5010407;28;20198;-40
2020/12/15 10:36:30;;;;;;;6.90;5.40;;;11.40;57.10;;;;;;5010319;28;20190;-40
2020/12/15 10:38:56;;;;;;;7.80;6.17;;;11.60;57.10;;;;;;5009894;28;20272;-40
2020/12/15 10:41:26;;;;;;;5.27;4.77;;;11.60;57.10;;;;;;5010420;28;20653;-40
2020/12/15 10:43:52;;;;;;;6.90;5.73;;;11.60;56.80;;;;;;5010909;28;20441;-40
2020/12/15 10:46:26;;;;;;;6.50;4.63;;;11.40;57.30;;;;;;5010826;28;20954;-40
2020/12/15 10:48:52;;;;;;;8.80;6.30;;;11.50;57.60;;;;;;5006544;28;20233;-40
2020/12/15 10:51:18;;;;;;;6.23;5.40;;;11.70;57.60;;;;;;5010395;28;21603;-40
2020/12/15 10:53:44;;;;;;;5.70;5.10;;;11.70;57.00;;;;;;5008943;28;20429;-40
2020/12/15 10:56:13;;;;;;;6.00;5.27;;;11.80;57.20;;;;;;5008011;28;20543;-40
2020/12/15 10:58:39;;;;;;;6.10;5.50;;;12.20;56.80;;;;;;5011137;28;20209;-40
2020/12/15 11:01:07;;;;;;;9.97;6.00;;;12.50;56.40;;;;;;5003350;28;20443;-40
2020/12/15 11:03:32;;;;;;;5.73;5.07;;;12.80;55.40;;;;;;5010919;28;20437;-40
2020/12/15 11:05:58;;;;;;;6.97;5.30;;;13.00;55.00;;;;;;5008249;28;20483;-41
2020/12/15 11:08:23;;;;;;;7.60;6.13;;;13.10;54.30;;;;;;5009198;28;20202;-40
2020/12/15 11:10:49;;;;;;;6.90;6.17;;;13.30;54.20;;;;;;5009486;28;20229;-40
2020/12/15 11:13:15;;;;;;;7.70;5.57;;;13.30;54.20;;;;;;5008947;28;20190;-40
2020/12/15 11:15:40;;;;;;;8.20;5.40;;;13.30;54.30;;;;;;5008960;28;20661;-40
2020/12/15 11:18:06;;;;;;;6.30;5.13;;;13.40;54.30;;;;;;5006136;28;20206;-40
2020/12/15 11:20:33;;;;;;;6.40;5.20;;;13.40;54.30;;;;;;5004178;28;20201;-40
2020/12/15 11:23:00;;;;;;;6.30;5.57;;;13.40;54.60;;;;;;5007532;28;20440;-40
2020/12/15 11:25:26;;;;;;;6.27;5.67;;;13.40;54.40;;;;;;5007787;28;20452;-40
2020/12/15 11:27:51;;;;;;;6.03;5.43;;;13.60;54.30;;;;;;5008652;28;20433;-40
2020/12/15 11:30:17;;;;;;;6.00;5.40;;;13.80;54.10;;;;;;5008229;28;20695;-40
2020/12/15 11:32:42;;;;;;;7.40;6.10;;;13.80;54.00;;;;;;5008886;28;20224;-40
2020/12/15 11:35:08;;;;;;;7.93;5.50;;;13.70;54.20;;;;;;5009543;28;20206;-40
2020/12/15 11:37:38;;;;;;;6.37;5.77;;;13.70;54.70;;;;;;5006037;28;20201;-40
2020/12/15 11:40:03;;;;;;;6.13;5.53;;;13.60;55.00;;;;;;5007754;28;20197;-40
2020/12/15 11:42:29;;;;;;;7.40;5.87;;;13.60;55.00;;;;;;5011157;28;20449;-40
2020/12/15 11:44:54;;;;;;;7.30;6.60;;;13.60;55.20;;;;;;5008786;28;20231;-40
2020/12/15 11:47:22;;;;;;;7.10;6.07;;;13.80;55.20;;;;;;5008177;28;20196;-40
2020/12/15 11:49:48;;;;;;;8.13;6.70;;;13.90;54.80;;;;;;5008048;28;20233;-40
2020/12/15 11:52:13;;;;;;;8.70;5.70;;;13.80;54.40;;;;;;5008547;28;20491;-40
2020/12/15 11:54:40;;;;;;;6.70;5.47;;;13.80;54.40;;;;;;5008873;28;21354;-40
2020/12/15 11:57:06;;;;;;;6.00;5.07;;;13.60;54.70;;;;;;5005036;28;20194;-40
2020/12/15 11:59:31;;;;;;;5.77;5.27;;;13.60;54.50;;;;;;5009583;28;20459;-40
2020/12/15 12:01:57;;;;;;;6.67;5.43;;;13.50;54.60;;;;;;5009805;28;20185;-40
2020/12/15 12:04:22;;;;;;;6.97;6.10;;;13.40;54.80;;;;;;5008996;28;20672;-40
2020/12/15 12:06:48;;;;;;;5.87;5.27;;;13.40;55.20;;;;;;5007498;28;20565;-40
2020/12/15 12:09:13;;;;;;;6.13;5.43;;;13.40;55.30;;;;;;5009415;28;20328;-40
2020/12/15 12:11:39;;;;;;;7.27;6.20;;;13.20;55.40;;;;;;5009975;28;20234;-40
2020/12/15 12:14:04;;;;;;;7.53;6.07;;;13.10;55.80;;;;;;5012477;28;20284;-40
2020/12/15 12:16:30;;;;;;;8.13;6.50;;;13.10;56.00;;;;;;5013736;28;20186;-40
2020/12/15 12:18:56;;;;;;;12.73;6.67;;;12.90;56.40;;;;;;5012822;28;20569;-40
2020/12/15 12:21:21;;;;;;;9.80;6.90;;;12.70;56.90;;;;;;5008577;28;20186;-40
2020/12/15 12:23:47;;;;;;;7.23;6.27;;;12.70;57.60;;;;;;5012965;28;20193;-40
2020/12/15 12:26:15;;;;;;;7.63;6.80;;;12.80;57.60;;;;;;5012371;28;20202;-40
2020/12/15 12:28:42;;;;;;;6.87;6.03;;;12.90;57.70;;;;;;5014093;28;20194;-40
2020/12/15 12:31:11;;;;;;;8.97;7.00;;;12.90;57.60;;;;;;5011771;28;20587;-40
2020/12/15 12:33:37;;;;;;;6.83;6.03;;;13.00;57.60;;;;;;5008679;28;20543;-40
2020/12/15 12:36:03;;;;;;;8.63;6.30;;;13.20;57.50;;;;;;5010506;28;21059;-40
2020/12/15 12:38:28;;;;;;;7.67;6.87;;;13.10;57.30;;;;;;5011525;28;20848;-40
2020/12/15 12:40:54;;;;;;;8.13;7.10;;;13.10;57.70;;;;;;5012211;28;20194;-40
2020/12/15 12:43:20;;;;;;;8.60;7.43;;;12.80;58.00;;;;;;5010655;28;20217;-40
2020/12/15 12:45:45;;;;;;;9.17;7.37;;;12.80;58.60;;;;;;5007251;28;20706;-40
2020/12/15 12:48:11;;;;;;;8.07;7.20;;;12.80;58.60;;;;;;5010463;28;20240;-40